sensor_id;sensor_type;location;lat;lon;timestamp;temperature;humidity
47576;DHT22;33304;52.456;13.328;2022-09-04T00:00:10;16.60;10.80
47576;DHT22;33304;52.456;13.328;2022-09-04T00:02:58;16.50;10.80
47576;DHT22;33304;52.456;13.328;2022-09-04T00:05:33;16.50;10.90
47576;DHT22;33304;52.456;13.328;2022-09-04T00:08:18;16.40;11.00
47576;DHT22;33304;52.456;13.328;2022-09-04T00:10:52;16.50;11.20
47576;DHT22;33304;52.456;13.328;2022-09-04T00:13:25;16.40;11.40
47576;DHT22;33304;52.456;13.328;2022-09-04T00:15:58;16.40;11.50
47576;DHT22;33304;52.456;13.328;2022-09-04T00:18:31;16.40;11.50
47576;DHT22;33304;52.456;13.328;2022-09-04T00:21:05;16.30;11.50
47576;DHT22;33304;52.456;13.328;2022-09-04T00:23:37;16.30;11.60
47576;DHT22;33304;52.456;13.328;2022-09-04T00:26:09;16.30;11.80
47576;DHT22;33304;52.456;13.328;2022-09-04T00:28:44;16.30;11.80
47576;DHT22;33304;52.456;13.328;2022-09-04T00:31:21;16.20;11.90
47576;DHT22;33304;52.456;13.328;2022-09-04T00:34:00;16.30;11.90
47576;DHT22;33304;52.456;13.328;2022-09-04T00:36:34;16.20;12.10
47576;DHT22;33304;52.456;13.328;2022-09-04T00:39:09;16.20;12.10
47576;DHT22;33304;52.456;13.328;2022-09-04T00:41:44;16.20;12.20
47576;DHT22;33304;52.456;13.328;2022-09-04T00:44:37;16.20;12.50
47576;DHT22;33304;52.456;13.328;2022-09-04T00:47:28;16.10;12.50
47576;DHT22;33304;52.456;13.328;2022-09-04T00:50:11;16.10;12.60
47576;DHT22;33304;52.456;13.328;2022-09-04T00:52:57;16.10;12.60
47576;DHT22;33304;52.456;13.328;2022-09-04T00:55:39;16.10;12.80
47576;DHT22;33304;52.456;13.328;2022-09-04T00:58:25;16.00;13.00
47576;DHT22;33304;52.456;13.328;2022-09-04T01:00:59;16.00;12.90
47576;DHT22;33304;52.456;13.328;2022-09-04T01:03:38;16.00;13.00
47576;DHT22;33304;52.456;13.328;2022-09-04T01:06:28;16.00;13.20
47576;DHT22;33304;52.456;13.328;2022-09-04T01:09:22;16.00;13.10
47576;DHT22;33304;52.456;13.328;2022-09-04T01:12:04;16.00;13.20
47576;DHT22;33304;52.456;13.328;2022-09-04T01:14:36;16.00;13.40
47576;DHT22;33304;52.456;13.328;2022-09-04T01:17:13;15.90;13.40
47576;DHT22;33304;52.456;13.328;2022-09-04T01:19:51;15.90;13.30
47576;DHT22;33304;52.456;13.328;2022-09-04T01:22:30;15.90;13.60
47576;DHT22;33304;52.456;13.328;2022-09-04T01:25:12;15.80;13.50
47576;DHT22;33304;52.456;13.328;2022-09-04T01:27:55;15.90;13.90
47576;DHT22;33304;52.456;13.328;2022-09-04T01:30:27;15.80;13.90
47576;DHT22;33304;52.456;13.328;2022-09-04T01:33:01;15.70;13.90
47576;DHT22;33304;52.456;13.328;2022-09-04T01:35:34;15.70;13.90
47576;DHT22;33304;52.456;13.328;2022-09-04T01:38:10;15.70;14.00
47576;DHT22;33304;52.456;13.328;2022-09-04T01:40:44;15.70;14.20
47576;DHT22;33304;52.456;13.328;2022-09-04T01:43:16;15.70;14.10
47576;DHT22;33304;52.456;13.328;2022-09-04T01:46:12;15.70;14.30
47576;DHT22;33304;52.456;13.328;2022-09-04T01:48:44;15.60;14.30
47576;DHT22;33304;52.456;13.328;2022-09-04T01:51:22;15.60;14.30
47576;DHT22;33304;52.456;13.328;2022-09-04T01:54:04;15.60;14.40
47576;DHT22;33304;52.456;13.328;2022-09-04T01:56:39;15.60;14.40
47576;DHT22;33304;52.456;13.328;2022-09-04T01:59:16;15.50;14.50
47576;DHT22;33304;52.456;13.328;2022-09-04T02:01:52;15.50;14.60
47576;DHT22;33304;52.456;13.328;2022-09-04T02:04:23;15.50;14.60
47576;DHT22;33304;52.456;13.328;2022-09-04T02:06:58;15.40;14.70
47576;DHT22;33304;52.456;13.328;2022-09-04T02:09:33;15.40;14.80
47576;DHT22;33304;52.456;13.328;2022-09-04T02:12:07;15.40;15.00
47576;DHT22;33304;52.456;13.328;2022-09-04T02:14:41;15.40;15.00
47576;DHT22;33304;52.456;13.328;2022-09-04T02:17:11;15.40;15.50
47576;DHT22;33304;52.456;13.328;2022-09-04T02:20:09;15.30;15.20
47576;DHT22;33304;52.456;13.328;2022-09-04T02:22:43;15.30;15.50
47576;DHT22;33304;52.456;13.328;2022-09-04T02:25:19;15.30;15.60
47576;DHT22;33304;52.456;13.328;2022-09-04T02:27:59;15.30;15.60
47576;DHT22;33304;52.456;13.328;2022-09-04T02:30:36;15.30;16.10
47576;DHT22;33304;52.456;13.328;2022-09-04T02:33:09;15.30;15.60
47576;DHT22;33304;52.456;13.328;2022-09-04T02:35:42;15.20;16.00
47576;DHT22;33304;52.456;13.328;2022-09-04T02:38:19;15.20;16.00
47576;DHT22;33304;52.456;13.328;2022-09-04T02:40:54;15.30;16.10
47576;DHT22;33304;52.456;13.328;2022-09-04T02:43:39;15.20;16.00
47576;DHT22;33304;52.456;13.328;2022-09-04T02:46:17;15.20;15.60
47576;DHT22;33304;52.456;13.328;2022-09-04T02:48:56;15.20;16.00
47576;DHT22;33304;52.456;13.328;2022-09-04T02:51:38;15.30;16.10
47576;DHT22;33304;52.456;13.328;2022-09-04T02:54:10;15.20;15.30
47576;DHT22;33304;52.456;13.328;2022-09-04T02:56:45;15.20;16.00
47576;DHT22;33304;52.456;13.328;2022-09-04T02:59:30;15.20;16.00
47576;DHT22;33304;52.456;13.328;2022-09-04T03:02:04;15.20;16.00
47576;DHT22;33304;52.456;13.328;2022-09-04T03:04:38;15.20;15.90
47576;DHT22;33304;52.456;13.328;2022-09-04T03:07:23;15.20;16.00
47576;DHT22;33304;52.456;13.328;2022-09-04T03:09:57;15.20;15.40
47576;DHT22;33304;52.456;13.328;2022-09-04T03:12:33;15.20;15.90
47576;DHT22;33304;52.456;13.328;2022-09-04T03:15:08;15.20;15.60
47576;DHT22;33304;52.456;13.328;2022-09-04T03:17:46;15.30;15.60
47576;DHT22;33304;52.456;13.328;2022-09-04T03:20:18;15.20;15.70
47576;DHT22;33304;52.456;13.328;2022-09-04T03:22:50;15.20;15.50
47576;DHT22;33304;52.456;13.328;2022-09-04T03:25:47;15.20;16.00
47576;DHT22;33304;52.456;13.328;2022-09-04T03:28:24;15.20;16.00
47576;DHT22;33304;52.456;13.328;2022-09-04T03:30:56;15.20;16.00
47576;DHT22;33304;52.456;13.328;2022-09-04T03:33:34;15.10;15.90
47576;DHT22;33304;52.456;13.328;2022-09-04T03:36:11;15.10;16.00
47576;DHT22;33304;52.456;13.328;2022-09-04T03:38:47;15.10;16.00
47576;DHT22;33304;52.456;13.328;2022-09-04T03:41:25;15.10;15.90
47576;DHT22;33304;52.456;13.328;2022-09-04T03:44:06;15.10;15.90
47576;DHT22;33304;52.456;13.328;2022-09-04T03:46:44;15.10;16.00
47576;DHT22;33304;52.456;13.328;2022-09-04T03:49:25;15.10;15.90
47576;DHT22;33304;52.456;13.328;2022-09-04T03:52:02;15.00;15.80
47576;DHT22;33304;52.456;13.328;2022-09-04T03:54:41;15.00;15.80
47576;DHT22;33304;52.456;13.328;2022-09-04T03:57:21;15.00;15.80
47576;DHT22;33304;52.456;13.328;2022-09-04T04:00:03;15.00;15.80
47576;DHT22;33304;52.456;13.328;2022-09-04T04:05:43;15.00;15.80
47576;DHT22;33304;52.456;13.328;2022-09-04T04:11:41;14.90;15.80
47576;DHT22;33304;52.456;13.328;2022-09-04T04:14:30;14.90;15.80
47576;DHT22;33304;52.456;13.328;2022-09-04T04:17:13;14.80;15.70
47576;DHT22;33304;52.456;13.328;2022-09-04T04:19:56;14.80;15.70
47576;DHT22;33304;52.456;13.328;2022-09-04T04:22:53;14.80;15.70
47576;DHT22;33304;52.456;13.328;2022-09-04T04:25:43;14.80;15.70
47576;DHT22;33304;52.456;13.328;2022-09-04T04:28:22;14.70;15.70
47576;DHT22;33304;52.456;13.328;2022-09-04T04:30:51;14.70;15.90
47576;DHT22;33304;52.456;13.328;2022-09-04T04:33:30;14.70;15.70
47576;DHT22;33304;52.456;13.328;2022-09-04T04:36:11;14.70;15.60
47576;DHT22;33304;52.456;13.328;2022-09-04T04:38:54;14.60;16.00
47576;DHT22;33304;52.456;13.328;2022-09-04T04:41:31;14.60;15.90
47576;DHT22;33304;52.456;13.328;2022-09-04T04:44:25;14.60;16.20
47576;DHT22;33304;52.456;13.328;2022-09-04T04:47:27;14.60;16.10
47576;DHT22;33304;52.456;13.328;2022-09-04T04:50:07;14.60;16.50
47576;DHT22;33304;52.456;13.328;2022-09-04T04:52:48;14.50;16.40
47576;DHT22;33304;52.456;13.328;2022-09-04T04:55:31;14.30;16.40
47576;DHT22;33304;52.456;13.328;2022-09-04T04:58:31;14.40;16.70
47576;DHT22;33304;52.456;13.328;2022-09-04T05:01:08;14.30;17.00
47576;DHT22;33304;52.456;13.328;2022-09-04T05:03:50;14.30;16.70
47576;DHT22;33304;52.456;13.328;2022-09-04T05:06:25;14.40;16.80
47576;DHT22;33304;52.456;13.328;2022-09-04T05:09:00;14.30;16.80
47576;DHT22;33304;52.456;13.328;2022-09-04T05:11:42;14.30;16.80
47576;DHT22;33304;52.456;13.328;2022-09-04T05:14:25;14.40;17.30
47576;DHT22;33304;52.456;13.328;2022-09-04T05:17:02;14.40;16.90
47576;DHT22;33304;52.456;13.328;2022-09-04T05:19:34;14.40;16.80
47576;DHT22;33304;52.456;13.328;2022-09-04T05:22:11;14.40;16.50
47576;DHT22;33304;52.456;13.328;2022-09-04T05:24:49;14.40;16.60
47576;DHT22;33304;52.456;13.328;2022-09-04T05:27:37;14.40;16.70
47576;DHT22;33304;52.456;13.328;2022-09-04T05:30:09;14.40;16.70
47576;DHT22;33304;52.456;13.328;2022-09-04T05:32:43;14.40;16.80
47576;DHT22;33304;52.456;13.328;2022-09-04T05:35:19;14.40;16.90
47576;DHT22;33304;52.456;13.328;2022-09-04T05:37:54;14.50;16.70
47576;DHT22;33304;52.456;13.328;2022-09-04T05:40:27;14.50;16.60
47576;DHT22;33304;52.456;13.328;2022-09-04T05:43:10;14.40;16.80
47576;DHT22;33304;52.456;13.328;2022-09-04T05:45:51;14.50;16.60
47576;DHT22;33304;52.456;13.328;2022-09-04T05:48:23;14.60;16.60
47576;DHT22;33304;52.456;13.328;2022-09-04T05:51:39;14.70;16.20
47576;DHT22;33304;52.456;13.328;2022-09-04T05:54:30;14.80;15.70
47576;DHT22;33304;52.456;13.328;2022-09-04T05:57:11;14.90;15.80
47576;DHT22;33304;52.456;13.328;2022-09-04T06:00:02;14.90;15.80
47576;DHT22;33304;52.456;13.328;2022-09-04T06:03:07;15.00;15.80
47576;DHT22;33304;52.456;13.328;2022-09-04T06:05:50;15.00;15.80
47576;DHT22;33304;52.456;13.328;2022-09-04T06:08:31;15.00;15.80
47576;DHT22;33304;52.456;13.328;2022-09-04T06:11:30;15.00;15.80
47576;DHT22;33304;52.456;13.328;2022-09-04T06:14:13;15.20;16.00
47576;DHT22;33304;52.456;13.328;2022-09-04T06:17:02;15.20;16.00
47576;DHT22;33304;52.456;13.328;2022-09-04T06:19:46;15.20;16.00
47576;DHT22;33304;52.456;13.328;2022-09-04T06:22:30;15.30;16.10
47576;DHT22;33304;52.456;13.328;2022-09-04T06:25:34;15.30;16.10
47576;DHT22;33304;52.456;13.328;2022-09-04T06:28:47;15.30;16.10
47576;DHT22;33304;52.456;13.328;2022-09-04T06:31:58;15.40;16.10
47576;DHT22;33304;52.456;13.328;2022-09-04T06:34:53;15.40;16.10
47576;DHT22;33304;52.456;13.328;2022-09-04T06:37:31;15.50;16.20
47576;DHT22;33304;52.456;13.328;2022-09-04T06:40:25;15.60;16.20
47576;DHT22;33304;52.456;13.328;2022-09-04T06:43:04;15.70;15.90
47576;DHT22;33304;52.456;13.328;2022-09-04T06:45:47;15.70;16.30
47576;DHT22;33304;52.456;13.328;2022-09-04T06:48:31;15.80;15.30
47576;DHT22;33304;52.456;13.328;2022-09-04T06:51:08;15.90;15.70
47576;DHT22;33304;52.456;13.328;2022-09-04T06:53:46;16.00;15.70
47576;DHT22;33304;52.456;13.328;2022-09-04T06:56:31;16.20;15.10
47576;DHT22;33304;52.456;13.328;2022-09-04T06:59:22;16.40;14.60
47576;DHT22;33304;52.456;13.328;2022-09-04T07:02:01;16.40;14.90
47576;DHT22;33304;52.456;13.328;2022-09-04T07:04:40;16.40;14.70
47576;DHT22;33304;52.456;13.328;2022-09-04T07:07:17;16.60;14.50
47576;DHT22;33304;52.456;13.328;2022-09-04T07:09:51;16.70;14.30
47576;DHT22;33304;52.456;13.328;2022-09-04T07:18:42;17.00;14.00
47576;DHT22;33304;52.456;13.328;2022-09-04T07:21:21;17.10;14.10
47576;DHT22;33304;52.456;13.328;2022-09-04T07:23:55;17.00;14.10
47576;DHT22;33304;52.456;13.328;2022-09-04T07:26:32;17.20;14.50
47576;DHT22;33304;52.456;13.328;2022-09-04T07:29:19;17.20;14.70
47576;DHT22;33304;52.456;13.328;2022-09-04T07:32:00;17.20;14.80
47576;DHT22;33304;52.456;13.328;2022-09-04T07:34:36;17.30;14.90
47576;DHT22;33304;52.456;13.328;2022-09-04T07:37:12;17.40;14.10
47576;DHT22;33304;52.456;13.328;2022-09-04T07:39:58;17.60;14.20
47576;DHT22;33304;52.456;13.328;2022-09-04T07:42:30;17.70;14.10
47576;DHT22;33304;52.456;13.328;2022-09-04T07:45:02;17.70;14.40
47576;DHT22;33304;52.456;13.328;2022-09-04T07:47:34;17.70;14.10
47576;DHT22;33304;52.456;13.328;2022-09-04T07:50:08;17.90;13.90
47576;DHT22;33304;52.456;13.328;2022-09-04T07:52:51;17.90;14.00
47576;DHT22;33304;52.456;13.328;2022-09-04T07:55:27;18.10;14.30
47576;DHT22;33304;52.456;13.328;2022-09-04T08:01:24;18.30;13.90
47576;DHT22;33304;52.456;13.328;2022-09-04T08:04:26;18.60;13.80
47576;DHT22;33304;52.456;13.328;2022-09-04T08:06:57;18.70;13.30
47576;DHT22;33304;52.456;13.328;2022-09-04T08:09:46;18.80;13.40
47576;DHT22;33304;52.456;13.328;2022-09-04T08:15:29;19.00;12.70
47576;DHT22;33304;52.456;13.328;2022-09-04T08:18:23;19.20;12.40
47576;DHT22;33304;52.456;13.328;2022-09-04T08:21:03;19.40;12.40
47576;DHT22;33304;52.456;13.328;2022-09-04T08:23:53;19.50;12.10
47576;DHT22;33304;52.456;13.328;2022-09-04T08:26:36;19.70;11.90
47576;DHT22;33304;52.456;13.328;2022-09-04T08:29:20;19.80;11.60
47576;DHT22;33304;52.456;13.328;2022-09-04T08:31:59;19.90;11.50
47576;DHT22;33304;52.456;13.328;2022-09-04T08:35:04;20.10;11.10
47576;DHT22;33304;52.456;13.328;2022-09-04T08:37:43;20.30;10.70
47576;DHT22;33304;52.456;13.328;2022-09-04T08:40:29;20.30;9.90
47576;DHT22;33304;52.456;13.328;2022-09-04T08:43:26;20.20;10.30
47576;DHT22;33304;52.456;13.328;2022-09-04T08:49:46;20.20;10.80
47576;DHT22;33304;52.456;13.328;2022-09-04T08:52:31;20.10;10.50
47576;DHT22;33304;52.456;13.328;2022-09-04T08:55:29;20.00;11.10
47576;DHT22;33304;52.456;13.328;2022-09-04T08:58:29;20.40;11.30
47576;DHT22;33304;52.456;13.328;2022-09-04T09:01:22;20.50;10.70
47576;DHT22;33304;52.456;13.328;2022-09-04T09:07:10;20.60;9.80
47576;DHT22;33304;52.456;13.328;2022-09-04T09:13:25;20.80;9.90
47576;DHT22;33304;52.456;13.328;2022-09-04T09:16:18;20.90;9.70
47576;DHT22;33304;52.456;13.328;2022-09-04T09:19:07;20.90;10.00
47576;DHT22;33304;52.456;13.328;2022-09-04T09:21:42;20.90;10.00
47576;DHT22;33304;52.456;13.328;2022-09-04T09:27:32;21.40;8.90
47576;DHT22;33304;52.456;13.328;2022-09-04T09:30:08;21.40;9.20
47576;DHT22;33304;52.456;13.328;2022-09-04T09:33:09;21.40;8.70
47576;DHT22;33304;52.456;13.328;2022-09-04T09:45:12;21.90;6.60
47576;DHT22;33304;52.456;13.328;2022-09-04T09:48:22;21.70;6.30
47576;DHT22;33304;52.456;13.328;2022-09-04T09:51:16;21.80;6.10
47576;DHT22;33304;52.456;13.328;2022-09-04T10:00:17;21.90;6.10
47576;DHT22;33304;52.456;13.328;2022-09-04T10:03:13;22.00;5.80
47576;DHT22;33304;52.456;13.328;2022-09-04T10:06:11;22.20;5.40
47576;DHT22;33304;52.456;13.328;2022-09-04T10:11:52;22.70;4.60
47576;DHT22;33304;52.456;13.328;2022-09-04T10:14:49;22.70;5.50
47576;DHT22;33304;52.456;13.328;2022-09-04T10:18:01;22.70;5.20
47576;DHT22;33304;52.456;13.328;2022-09-04T10:20:48;22.90;4.40
47576;DHT22;33304;52.456;13.328;2022-09-04T10:27:02;23.20;3.80
47576;DHT22;33304;52.456;13.328;2022-09-04T10:29:49;23.20;3.20
47576;DHT22;33304;52.456;13.328;2022-09-04T10:32:32;23.30;2.70
47576;DHT22;33304;52.456;13.328;2022-09-04T10:35:17;23.50;2.20
47576;DHT22;33304;52.456;13.328;2022-09-04T10:44:20;23.80;2.30
47576;DHT22;33304;52.456;13.328;2022-09-04T10:47:01;24.10;1.80
47576;DHT22;33304;52.456;13.328;2022-09-04T10:49:47;23.90;2.50
47576;DHT22;33304;52.456;13.328;2022-09-04T10:55:39;23.70;1.50
47576;DHT22;33304;52.456;13.328;2022-09-04T10:58:27;23.80;2.10
47576;DHT22;33304;52.456;13.328;2022-09-04T11:01:16;23.80;2.80
47576;DHT22;33304;52.456;13.328;2022-09-04T11:07:10;24.10;1.80
47576;DHT22;33304;52.456;13.328;2022-09-04T11:09:57;24.30;1.10
47576;DHT22;33304;52.456;13.328;2022-09-04T11:12:55;24.40;2.00
47576;DHT22;33304;52.456;13.328;2022-09-04T11:15:42;24.50;1.00
47576;DHT22;33304;52.456;13.328;2022-09-04T11:21:40;24.90;1.00
47576;DHT22;33304;52.456;13.328;2022-09-04T11:24:34;25.00;1.00
47576;DHT22;33304;52.456;13.328;2022-09-04T11:27:39;24.90;1.00
47576;DHT22;33304;52.456;13.328;2022-09-04T11:30:17;24.70;1.00
47576;DHT22;33304;52.456;13.328;2022-09-04T11:33:17;24.80;1.00
47576;DHT22;33304;52.456;13.328;2022-09-04T11:36:07;24.80;1.00
47576;DHT22;33304;52.456;13.328;2022-09-04T11:39:02;25.30;1.00
47576;DHT22;33304;52.456;13.328;2022-09-04T11:45:13;25.20;1.00
47576;DHT22;33304;52.456;13.328;2022-09-04T11:48:06;25.50;1.00
47576;DHT22;33304;52.456;13.328;2022-09-04T11:50:50;25.60;1.00
47576;DHT22;33304;52.456;13.328;2022-09-04T11:53:47;25.60;1.00
47576;DHT22;33304;52.456;13.328;2022-09-04T11:56:37;25.60;1.00
47576;DHT22;33304;52.456;13.328;2022-09-04T12:02:27;25.40;1.00
47576;DHT22;33304;52.456;13.328;2022-09-04T12:05:12;25.50;1.00
47576;DHT22;33304;52.456;13.328;2022-09-04T12:07:59;25.90;1.00
47576;DHT22;33304;52.456;13.328;2022-09-04T12:10:52;26.00;1.00
47576;DHT22;33304;52.456;13.328;2022-09-04T12:13:43;26.00;1.00
47576;DHT22;33304;52.456;13.328;2022-09-04T12:16:48;26.40;1.00
47576;DHT22;33304;52.456;13.328;2022-09-04T12:22:37;26.90;1.00
47576;DHT22;33304;52.456;13.328;2022-09-04T12:25:36;26.90;1.00
47576;DHT22;33304;52.456;13.328;2022-09-04T12:28:38;26.90;1.00
47576;DHT22;33304;52.456;13.328;2022-09-04T12:31:45;27.20;1.00
47576;DHT22;33304;52.456;13.328;2022-09-04T12:34:34;27.50;1.00
47576;DHT22;33304;52.456;13.328;2022-09-04T12:40:30;27.80;1.00
47576;DHT22;33304;52.456;13.328;2022-09-04T12:43:08;27.50;1.00
47576;DHT22;33304;52.456;13.328;2022-09-04T12:45:47;28.20;1.00
47576;DHT22;33304;52.456;13.328;2022-09-04T12:48:26;28.30;1.00
47576;DHT22;33304;52.456;13.328;2022-09-04T12:51:03;28.50;1.00
47576;DHT22;33304;52.456;13.328;2022-09-04T12:53:51;28.40;1.00
47576;DHT22;33304;52.456;13.328;2022-09-04T12:56:30;28.50;1.00
47576;DHT22;33304;52.456;13.328;2022-09-04T12:59:17;28.70;1.00
47576;DHT22;33304;52.456;13.328;2022-09-04T13:01:57;29.30;1.00
47576;DHT22;33304;52.456;13.328;2022-09-04T13:04:32;29.70;1.00
47576;DHT22;33304;52.456;13.328;2022-09-04T13:07:24;29.80;1.00
47576;DHT22;33304;52.456;13.328;2022-09-04T13:10:02;29.80;1.00
47576;DHT22;33304;52.456;13.328;2022-09-04T13:12:38;30.10;1.00
47576;DHT22;33304;52.456;13.328;2022-09-04T13:15:33;30.60;1.00
47576;DHT22;33304;52.456;13.328;2022-09-04T13:18:15;31.10;1.00
47576;DHT22;33304;52.456;13.328;2022-09-04T13:20:51;32.00;1.00
47576;DHT22;33304;52.456;13.328;2022-09-04T13:23:33;33.00;1.00
47576;DHT22;33304;52.456;13.328;2022-09-04T13:26:18;32.70;1.00
47576;DHT22;33304;52.456;13.328;2022-09-04T13:28:56;32.90;1.00
47576;DHT22;33304;52.456;13.328;2022-09-04T13:31:37;32.90;1.00
47576;DHT22;33304;52.456;13.328;2022-09-04T13:34:12;32.30;1.00
47576;DHT22;33304;52.456;13.328;2022-09-04T13:36:48;33.00;1.00
47576;DHT22;33304;52.456;13.328;2022-09-04T13:39:33;32.60;1.00
47576;DHT22;33304;52.456;13.328;2022-09-04T13:42:38;32.70;1.00
47576;DHT22;33304;52.456;13.328;2022-09-04T13:45:11;32.30;1.00
47576;DHT22;33304;52.456;13.328;2022-09-04T13:47:44;32.20;1.00
47576;DHT22;33304;52.456;13.328;2022-09-04T13:50:18;33.30;1.00
47576;DHT22;33304;52.456;13.328;2022-09-04T13:52:50;33.10;1.00
47576;DHT22;33304;52.456;13.328;2022-09-04T13:55:23;32.30;1.00
47576;DHT22;33304;52.456;13.328;2022-09-04T13:57:58;32.10;1.00
47576;DHT22;33304;52.456;13.328;2022-09-04T14:00:30;31.50;1.00
47576;DHT22;33304;52.456;13.328;2022-09-04T14:03:02;30.90;1.00
47576;DHT22;33304;52.456;13.328;2022-09-04T14:05:32;31.70;1.00
47576;DHT22;33304;52.456;13.328;2022-09-04T14:08:05;31.90;1.00
47576;DHT22;33304;52.456;13.328;2022-09-04T14:10:49;32.30;1.00
47576;DHT22;33304;52.456;13.328;2022-09-04T14:13:32;30.90;1.00
47576;DHT22;33304;52.456;13.328;2022-09-04T14:16:03;30.30;1.00
47576;DHT22;33304;52.456;13.328;2022-09-04T14:18:53;31.00;1.00
47576;DHT22;33304;52.456;13.328;2022-09-04T14:21:38;32.50;1.00
47576;DHT22;33304;52.456;13.328;2022-09-04T14:24:15;32.10;1.00
47576;DHT22;33304;52.456;13.328;2022-09-04T14:26:51;31.90;1.00
47576;DHT22;33304;52.456;13.328;2022-09-04T14:29:29;32.60;1.00
47576;DHT22;33304;52.456;13.328;2022-09-04T14:32:08;33.40;1.00
47576;DHT22;33304;52.456;13.328;2022-09-04T14:34:47;34.00;1.00
47576;DHT22;33304;52.456;13.328;2022-09-04T14:37:35;33.40;1.00
47576;DHT22;33304;52.456;13.328;2022-09-04T14:40:14;33.10;1.00
47576;DHT22;33304;52.456;13.328;2022-09-04T14:42:51;32.60;1.00
47576;DHT22;33304;52.456;13.328;2022-09-04T14:45:33;33.70;1.00
47576;DHT22;33304;52.456;13.328;2022-09-04T14:48:05;33.50;1.00
47576;DHT22;33304;52.456;13.328;2022-09-04T14:50:48;32.10;1.00
47576;DHT22;33304;52.456;13.328;2022-09-04T14:53:23;31.60;1.00
47576;DHT22;33304;52.456;13.328;2022-09-04T14:56:10;31.70;1.00
47576;DHT22;33304;52.456;13.328;2022-09-04T14:58:42;32.30;1.00
47576;DHT22;33304;52.456;13.328;2022-09-04T15:01:17;31.70;1.00
47576;DHT22;33304;52.456;13.328;2022-09-04T15:03:47;31.00;1.00
47576;DHT22;33304;52.456;13.328;2022-09-04T15:06:21;30.70;1.00
47576;DHT22;33304;52.456;13.328;2022-09-04T15:08:51;30.40;1.00
47576;DHT22;33304;52.456;13.328;2022-09-04T15:11:27;29.90;1.00
47576;DHT22;33304;52.456;13.328;2022-09-04T15:13:59;29.30;1.00
47576;DHT22;33304;52.456;13.328;2022-09-04T15:16:44;28.40;1.00
47576;DHT22;33304;52.456;13.328;2022-09-04T15:19:27;27.60;1.00
47576;DHT22;33304;52.456;13.328;2022-09-04T15:21:58;26.90;1.00
47576;DHT22;33304;52.456;13.328;2022-09-04T15:24:33;26.50;1.00
47576;DHT22;33304;52.456;13.328;2022-09-04T15:27:09;26.40;1.00
47576;DHT22;33304;52.456;13.328;2022-09-04T15:29:53;26.20;1.00
47576;DHT22;33304;52.456;13.328;2022-09-04T15:32:23;26.00;1.00
47576;DHT22;33304;52.456;13.328;2022-09-04T15:35:12;26.00;1.00
47576;DHT22;33304;52.456;13.328;2022-09-04T15:37:42;25.60;1.00
47576;DHT22;33304;52.456;13.328;2022-09-04T15:40:20;25.30;1.00
47576;DHT22;33304;52.456;13.328;2022-09-04T15:42:56;25.20;1.00
47576;DHT22;33304;52.456;13.328;2022-09-04T15:45:41;25.20;1.00
47576;DHT22;33304;52.456;13.328;2022-09-04T15:48:26;25.00;1.00
47576;DHT22;33304;52.456;13.328;2022-09-04T15:51:02;25.00;1.00
47576;DHT22;33304;52.456;13.328;2022-09-04T15:53:32;25.10;1.00
47576;DHT22;33304;52.456;13.328;2022-09-04T15:56:06;25.00;1.00
47576;DHT22;33304;52.456;13.328;2022-09-04T15:58:43;24.90;1.00
47576;DHT22;33304;52.456;13.328;2022-09-04T16:01:22;24.80;1.00
47576;DHT22;33304;52.456;13.328;2022-09-04T16:04:01;24.80;1.00
47576;DHT22;33304;52.456;13.328;2022-09-04T16:06:40;24.80;1.00
47576;DHT22;33304;52.456;13.328;2022-09-04T16:09:18;24.70;1.00
47576;DHT22;33304;52.456;13.328;2022-09-04T16:11:53;24.70;1.00
47576;DHT22;33304;52.456;13.328;2022-09-04T16:14:28;24.50;1.00
47576;DHT22;33304;52.456;13.328;2022-09-04T16:17:01;24.40;1.00
47576;DHT22;33304;52.456;13.328;2022-09-04T16:19:37;24.30;1.00
47576;DHT22;33304;52.456;13.328;2022-09-04T16:22:15;24.30;1.00
47576;DHT22;33304;52.456;13.328;2022-09-04T16:24:45;24.20;1.00
47576;DHT22;33304;52.456;13.328;2022-09-04T16:27:16;24.20;1.00
47576;DHT22;33304;52.456;13.328;2022-09-04T16:29:48;24.10;1.00
47576;DHT22;33304;52.456;13.328;2022-09-04T16:32:21;24.00;1.00
47576;DHT22;33304;52.456;13.328;2022-09-04T16:34:52;23.90;1.00
47576;DHT22;33304;52.456;13.328;2022-09-04T16:37:24;23.80;1.00
47576;DHT22;33304;52.456;13.328;2022-09-04T16:40:03;23.80;1.00
47576;DHT22;33304;52.456;13.328;2022-09-04T16:42:38;23.80;1.00
47576;DHT22;33304;52.456;13.328;2022-09-04T16:45:11;23.70;1.00
47576;DHT22;33304;52.456;13.328;2022-09-04T16:47:45;23.60;1.00
47576;DHT22;33304;52.456;13.328;2022-09-04T16:50:21;23.50;1.00
47576;DHT22;33304;52.456;13.328;2022-09-04T16:53:02;23.40;1.00
47576;DHT22;33304;52.456;13.328;2022-09-04T16:55:33;23.40;1.00
47576;DHT22;33304;52.456;13.328;2022-09-04T16:58:17;23.30;1.00
47576;DHT22;33304;52.456;13.328;2022-09-04T17:00:56;23.20;1.00
47576;DHT22;33304;52.456;13.328;2022-09-04T17:03:38;23.10;1.00
47576;DHT22;33304;52.456;13.328;2022-09-04T17:06:16;23.10;1.00
47576;DHT22;33304;52.456;13.328;2022-09-04T17:08:50;23.10;1.00
47576;DHT22;33304;52.456;13.328;2022-09-04T17:11:26;23.00;1.00
47576;DHT22;33304;52.456;13.328;2022-09-04T17:14:01;23.00;1.00
47576;DHT22;33304;52.456;13.328;2022-09-04T17:16:32;22.90;1.00
47576;DHT22;33304;52.456;13.328;2022-09-04T17:19:11;22.90;1.00
47576;DHT22;33304;52.456;13.328;2022-09-04T17:21:54;22.90;1.00
47576;DHT22;33304;52.456;13.328;2022-09-04T17:24:43;22.80;1.00
47576;DHT22;33304;52.456;13.328;2022-09-04T17:27:17;22.80;1.00
47576;DHT22;33304;52.456;13.328;2022-09-04T17:29:48;22.70;1.00
47576;DHT22;33304;52.456;13.328;2022-09-04T17:32:22;22.70;1.20
47576;DHT22;33304;52.456;13.328;2022-09-04T17:34:58;22.70;1.40
47576;DHT22;33304;52.456;13.328;2022-09-04T17:37:31;22.50;1.50
47576;DHT22;33304;52.456;13.328;2022-09-04T17:40:07;22.40;2.30
47576;DHT22;33304;52.456;13.328;2022-09-04T17:42:40;22.40;1.40
47576;DHT22;33304;52.456;13.328;2022-09-04T17:45:18;22.20;2.20
47576;DHT22;33304;52.456;13.328;2022-09-04T17:47:48;22.20;1.70
47576;DHT22;33304;52.456;13.328;2022-09-04T17:50:26;22.10;2.10
47576;DHT22;33304;52.456;13.328;2022-09-04T17:52:56;22.10;2.50
47576;DHT22;33304;52.456;13.328;2022-09-04T17:55:25;22.10;3.00
47576;DHT22;33304;52.456;13.328;2022-09-04T17:57:59;22.00;3.30
47576;DHT22;33304;52.456;13.328;2022-09-04T18:00:33;22.00;3.30
47576;DHT22;33304;52.456;13.328;2022-09-04T18:03:11;22.00;3.40
47576;DHT22;33304;52.456;13.328;2022-09-04T18:05:42;21.90;4.20
47576;DHT22;33304;52.456;13.328;2022-09-04T18:08:17;21.80;3.30
47576;DHT22;33304;52.456;13.328;2022-09-04T18:10:51;21.60;3.30